createdAt,value
2018-04-06T00:00:09.105Z,5.80
2018-04-06T00:02:36.580Z,5.90
2018-04-06T00:05:04.072Z,5.80
2018-04-06T00:07:31.532Z,5.80
2018-04-06T00:09:58.996Z,5.80
2018-04-06T00:12:26.473Z,5.80
2018-04-06T00:14:53.941Z,5.80
2018-04-06T00:17:21.405Z,5.70
2018-04-06T00:19:48.875Z,5.80
2018-04-06T00:22:17.089Z,5.80
2018-04-06T00:24:44.556Z,5.80
2018-04-06T00:27:12.044Z,5.80
2018-04-06T00:29:39.504Z,5.80
2018-04-06T00:32:06.973Z,5.80
2018-04-06T00:34:34.426Z,5.70
2018-04-06T00:37:01.901Z,5.70
2018-04-06T00:39:29.353Z,5.70
2018-04-06T00:41:56.846Z,5.70
2018-04-06T00:44:24.322Z,5.70
2018-04-06T00:46:51.795Z,5.70
2018-04-06T00:49:19.247Z,5.70
2018-04-06T00:51:46.699Z,5.70
2018-04-06T00:54:14.163Z,5.70
2018-04-06T00:56:41.624Z,5.70
2018-04-06T00:59:09.351Z,5.70
2018-04-06T01:01:36.804Z,5.60
2018-04-06T01:04:04.269Z,5.70
2018-04-06T01:06:31.741Z,5.70
2018-04-06T01:08:59.198Z,5.70
2018-04-06T01:11:26.693Z,5.70
2018-04-06T01:13:54.200Z,5.60
2018-04-06T01:16:21.741Z,5.60
2018-04-06T01:18:49.981Z,5.60
2018-04-06T01:21:17.468Z,5.60
2018-04-06T01:23:44.927Z,5.60
2018-04-06T01:26:13.155Z,5.60
2018-04-06T01:28:40.628Z,5.60
2018-04-06T01:31:08.115Z,5.60
2018-04-06T01:33:35.604Z,5.60
2018-04-06T01:36:03.084Z,5.60
2018-04-06T01:38:30.545Z,5.60
2018-04-06T01:40:58.021Z,5.50
2018-04-06T01:43:25.486Z,5.50
2018-04-06T01:45:53.008Z,5.50
2018-04-06T01:48:20.439Z,5.60
2018-04-06T01:50:47.934Z,5.60
2018-04-06T01:53:15.384Z,5.60
2018-04-06T01:55:42.855Z,5.50
2018-04-06T01:58:10.333Z,5.50
2018-04-06T02:00:37.846Z,5.50
2018-04-06T02:03:05.293Z,5.50
2018-04-06T02:05:32.788Z,5.50
2018-04-06T02:08:00.277Z,5.50
2018-04-06T02:10:27.960Z,5.50
2018-04-06T02:12:55.403Z,5.50
2018-04-06T02:15:22.876Z,5.50
2018-04-06T02:17:50.360Z,5.50
2018-04-06T02:20:17.828Z,5.50
2018-04-06T02:22:45.283Z,5.50
2018-04-06T02:25:12.756Z,5.50
2018-04-06T02:27:40.250Z,5.50
2018-04-06T02:30:07.721Z,5.40
2018-04-06T02:32:35.985Z,5.30
2018-04-06T02:35:03.453Z,5.30
2018-04-06T02:37:31.680Z,5.30
2018-04-06T02:39:59.154Z,5.20
2018-04-06T02:42:26.600Z,5.20
2018-04-06T02:44:54.097Z,5.20
2018-04-06T02:47:21.545Z,5.10
2018-04-06T02:49:49.019Z,5.10
2018-04-06T02:52:16.507Z,5.10
2018-04-06T02:54:43.976Z,5.00
2018-04-06T02:57:11.448Z,5.00
2018-04-06T02:59:38.901Z,5.00
2018-04-06T03:02:06.372Z,4.90
2018-04-06T03:04:33.840Z,4.90
2018-04-06T03:07:01.318Z,4.90
2018-04-06T03:09:28.779Z,4.80
2018-04-06T03:11:56.261Z,4.80
2018-04-06T03:14:24.513Z,4.80
2018-04-06T03:16:51.964Z,4.70
2018-04-06T03:19:19.420Z,4.70
2018-04-06T03:21:46.895Z,4.70
2018-04-06T03:24:14.373Z,4.70
2018-04-06T03:26:41.816Z,4.60
2018-04-06T03:29:10.056Z,4.60
2018-04-06T03:31:37.496Z,4.60
2018-04-06T03:34:04.968Z,4.50
2018-04-06T03:36:32.443Z,4.50
2018-04-06T03:39:00.045Z,4.50
2018-04-06T03:41:28.266Z,4.50
2018-04-06T03:43:55.744Z,4.40
2018-04-06T03:46:23.200Z,4.40
2018-04-06T03:48:50.665Z,4.40
2018-04-06T03:51:18.158Z,4.40
2018-04-06T03:53:45.616Z,4.40
2018-04-06T03:56:13.101Z,4.30
2018-04-06T03:58:40.564Z,4.30
2018-04-06T04:01:08.072Z,4.30
2018-04-06T04:03:36.349Z,4.30
2018-04-06T04:06:03.848Z,4.30
2018-04-06T04:08:31.409Z,4.20
2018-04-06T04:10:59.076Z,4.20
2018-04-06T04:13:26.532Z,4.20
2018-04-06T04:15:54.000Z,4.20
2018-04-06T04:18:21.507Z,4.20
2018-04-06T04:20:48.947Z,4.20
2018-04-06T04:23:16.575Z,4.20
2018-04-06T04:25:44.188Z,4.10
2018-04-06T04:28:11.715Z,4.10
2018-04-06T04:30:39.184Z,4.10
2018-04-06T04:33:06.644Z,4.10
2018-04-06T04:35:34.120Z,4.10
2018-04-06T04:38:02.352Z,4.10
2018-04-06T04:40:29.827Z,4.00
2018-04-06T04:42:57.281Z,4.10
2018-04-06T04:45:24.754Z,4.00
2018-04-06T04:47:52.213Z,4.00
2018-04-06T04:50:19.674Z,4.00
2018-04-06T04:52:47.149Z,4.00
2018-04-06T04:55:14.613Z,4.00
2018-04-06T04:57:42.839Z,3.90
2018-04-06T05:00:10.312Z,3.90
2018-04-06T05:02:37.813Z,3.90
2018-04-06T05:05:05.272Z,3.90
2018-04-06T05:07:32.765Z,3.90
2018-04-06T05:10:00.216Z,3.90
2018-04-06T05:12:27.678Z,3.90
2018-04-06T05:14:55.148Z,3.90
2018-04-06T05:17:22.608Z,3.90
2018-04-06T05:19:50.121Z,3.90
2018-04-06T05:22:17.570Z,3.90
2018-04-06T05:24:45.807Z,3.90
2018-04-06T05:27:13.301Z,3.90
2018-04-06T05:29:41.541Z,3.90
2018-04-06T05:32:08.998Z,3.90
2018-04-06T05:34:36.469Z,3.90
2018-04-06T05:37:03.920Z,4.00
2018-04-06T05:39:31.369Z,4.00
2018-04-06T05:41:58.850Z,4.00
2018-04-06T05:44:26.314Z,4.00
2018-04-06T05:46:53.780Z,4.10
2018-04-06T05:49:22.068Z,4.20
2018-04-06T05:51:50.311Z,4.30
2018-04-06T05:54:17.772Z,4.20
2018-04-06T05:56:45.225Z,4.30
2018-04-06T05:59:12.797Z,4.30
2018-04-06T06:01:40.306Z,4.40
2018-04-06T06:04:07.781Z,4.40
2018-04-06T06:06:35.259Z,4.40
2018-04-06T06:09:02.741Z,4.50
2018-04-06T06:11:30.310Z,4.50
2018-04-06T06:13:57.789Z,4.60
2018-04-06T06:16:25.237Z,4.60
2018-04-06T06:18:52.717Z,4.70
2018-04-06T06:21:20.164Z,4.70
2018-04-06T06:23:47.645Z,4.80
2018-04-06T06:26:15.124Z,4.90
2018-04-06T06:28:42.586Z,4.90
2018-04-06T06:31:10.075Z,5.00
2018-04-06T06:33:38.293Z,5.10
2018-04-06T06:36:05.755Z,5.10
2018-04-06T06:38:33.223Z,5.20
2018-04-06T06:41:00.734Z,5.30
2018-04-06T06:43:28.960Z,5.40
2018-04-06T06:45:57.190Z,5.50
2018-04-06T06:48:24.773Z,5.50
2018-04-06T06:50:52.308Z,5.60
2018-04-06T06:53:20.521Z,5.60
2018-04-06T06:55:48.002Z,5.60
2018-04-06T06:58:15.488Z,5.70
2018-04-06T07:03:17.720Z,5.80
2018-04-06T07:05:45.198Z,5.90
2018-04-06T07:08:12.655Z,6.00
2018-04-06T07:10:40.116Z,6.10
2018-04-06T07:13:07.567Z,6.20
2018-04-06T07:15:35.037Z,6.20
2018-04-06T07:18:02.573Z,6.30
2018-04-06T07:20:30.020Z,6.30
2018-04-06T07:22:57.510Z,6.30
2018-04-06T07:25:25.028Z,6.40
2018-04-06T07:27:52.503Z,6.50
2018-04-06T07:30:19.960Z,6.60
2018-04-06T07:32:47.431Z,6.60
2018-04-06T07:35:14.885Z,6.60
2018-04-06T07:37:42.333Z,6.70
2018-04-06T07:40:09.788Z,6.70
2018-04-06T07:42:37.258Z,6.80
2018-04-06T07:45:04.705Z,6.90
2018-04-06T07:47:32.184Z,6.90
2018-04-06T07:49:59.656Z,7.00
2018-04-06T07:52:27.320Z,7.00
2018-04-06T07:54:54.772Z,7.10
2018-04-06T07:57:22.249Z,7.10
2018-04-06T07:59:49.722Z,7.20
2018-04-06T08:02:17.181Z,7.30
2018-04-06T08:04:44.646Z,7.40
2018-04-06T08:07:12.106Z,7.50
2018-04-06T08:09:40.344Z,7.70
2018-04-06T08:12:07.832Z,7.70
2018-04-06T08:14:35.316Z,7.80
2018-04-06T08:17:02.776Z,7.80
2018-04-06T08:19:30.257Z,7.90
2018-04-06T08:21:57.710Z,8.00
2018-04-06T08:24:25.181Z,8.10
2018-04-06T08:26:52.645Z,8.20
2018-04-06T08:29:20.129Z,8.30
2018-04-06T08:31:47.590Z,8.40
2018-04-06T08:34:15.813Z,8.50
2018-04-06T08:36:43.259Z,8.50
2018-04-06T08:39:10.714Z,8.60
2018-04-06T08:41:38.381Z,8.70
2018-04-06T08:44:05.822Z,8.70
2018-04-06T08:46:33.280Z,8.80
2018-04-06T08:49:00.728Z,8.90
2018-04-06T08:51:28.204Z,9.00
2018-04-06T08:53:55.649Z,9.00
2018-04-06T08:56:23.888Z,9.20
2018-04-06T08:58:51.361Z,9.10
2018-04-06T09:01:18.838Z,9.20
2018-04-06T09:03:46.289Z,9.30
2018-04-06T09:06:13.750Z,9.30
2018-04-06T09:08:41.226Z,9.40
2018-04-06T09:11:08.678Z,9.40
2018-04-06T09:13:36.144Z,9.50
2018-04-06T09:16:03.623Z,9.60
2018-04-06T09:18:31.102Z,9.70
2018-04-06T09:20:58.563Z,9.80
2018-04-06T09:23:26.017Z,9.90
2018-04-06T09:25:53.576Z,10.00
2018-04-06T09:28:21.053Z,10.00
2018-04-06T09:30:48.499Z,10.10
2018-04-06T09:33:15.984Z,10.20
2018-04-06T09:35:43.440Z,10.20
2018-04-06T09:38:10.898Z,10.30
2018-04-06T09:40:38.382Z,10.40
2018-04-06T09:43:05.833Z,10.40
2018-04-06T09:45:34.097Z,10.60
2018-04-06T09:48:01.565Z,10.60
2018-04-06T09:50:29.147Z,10.70
2018-04-06T09:52:56.662Z,10.80
2018-04-06T09:55:24.097Z,10.80
2018-04-06T09:57:51.596Z,10.90
2018-04-06T10:00:24.830Z,11.00
2018-04-06T10:02:52.355Z,11.00
2018-04-06T10:05:20.587Z,11.10
2018-04-06T10:07:48.884Z,11.10
2018-04-06T10:10:16.373Z,11.20
2018-04-06T10:12:44.609Z,11.40
2018-04-06T10:15:12.090Z,11.30
2018-04-06T10:17:40.329Z,11.50
2018-04-06T10:20:07.794Z,11.50
2018-04-06T10:22:35.273Z,11.60
2018-04-06T10:25:02.783Z,11.70
2018-04-06T10:27:30.261Z,11.80
2018-04-06T10:29:57.723Z,11.90
2018-04-06T10:32:25.173Z,11.90
2018-04-06T10:34:52.673Z,11.90
2018-04-06T10:37:20.134Z,12.00
2018-04-06T10:39:48.357Z,12.10
2018-04-06T10:42:15.812Z,12.10
2018-04-06T10:44:43.309Z,12.10
2018-04-06T10:47:10.777Z,12.20
2018-04-06T10:49:38.237Z,12.30
2018-04-06T10:52:05.707Z,12.40
2018-04-06T10:54:33.952Z,12.60
2018-04-06T10:57:01.438Z,12.50
2018-04-06T10:59:28.934Z,12.60
2018-04-06T11:01:56.394Z,12.70
2018-04-06T11:04:23.892Z,12.80
2018-04-06T11:06:51.349Z,12.90
2018-04-06T11:09:18.817Z,12.90
2018-04-06T11:11:47.084Z,13.10
2018-04-06T11:14:14.582Z,13.10
2018-04-06T11:16:42.041Z,13.20
2018-04-06T11:19:09.524Z,13.30
2018-04-06T11:21:36.983Z,13.30
2018-04-06T11:24:04.465Z,13.40
2018-04-06T11:26:31.981Z,13.50
2018-04-06T11:28:59.484Z,13.60
2018-04-06T11:31:26.939Z,13.80
2018-04-06T11:33:54.404Z,13.80
2018-04-06T11:36:21.901Z,14.00
2018-04-06T11:38:50.120Z,14.10
2018-04-06T11:41:17.583Z,14.10
2018-04-06T11:43:45.031Z,14.10
2018-04-06T11:46:12.500Z,14.10
2018-04-06T11:48:39.967Z,14.20
2018-04-06T11:51:07.468Z,14.30
2018-04-06T11:53:35.706Z,14.50
2018-04-06T11:56:03.224Z,14.50
2018-04-06T11:58:30.679Z,14.60
2018-04-06T12:00:58.130Z,14.70
2018-04-06T12:03:25.608Z,14.80
2018-04-06T12:05:53.070Z,14.90
2018-04-06T12:08:20.537Z,15.00
2018-04-06T12:10:47.987Z,15.10
2018-04-06T12:13:15.445Z,15.20
2018-04-06T12:15:42.904Z,15.20
2018-04-06T12:18:10.378Z,15.30
2018-04-06T12:20:37.848Z,15.40
2018-04-06T12:23:05.302Z,15.50
2018-04-06T12:25:32.764Z,15.50
2018-04-06T12:28:00.379Z,15.50
2018-04-06T12:30:27.848Z,15.60
2018-04-06T12:32:55.296Z,15.70
2018-04-06T12:35:22.785Z,15.70
2018-04-06T12:37:50.237Z,15.70
2018-04-06T12:40:17.718Z,15.80
2018-04-06T12:42:45.184Z,15.90
2018-04-06T12:45:12.848Z,16.00
2018-04-06T12:47:40.329Z,16.00
2018-04-06T12:50:07.801Z,16.00
2018-04-06T12:52:35.240Z,16.00
2018-04-06T12:55:02.710Z,16.10
2018-04-06T12:57:30.163Z,16.20
2018-04-06T12:59:57.637Z,16.30
2018-04-06T13:02:25.085Z,16.40
2018-04-06T13:04:52.571Z,16.50
2018-04-06T13:07:20.049Z,16.50
2018-04-06T13:09:47.493Z,16.60
2018-04-06T13:12:14.952Z,16.70
2018-04-06T13:14:42.598Z,16.70
2018-04-06T13:17:10.065Z,16.80
2018-04-06T13:19:37.568Z,16.90
2018-04-06T13:22:05.065Z,17.00
2018-04-06T13:24:32.523Z,17.10
2018-04-06T13:26:59.977Z,17.10
2018-04-06T13:29:27.447Z,17.20
2018-04-06T13:31:54.909Z,17.40
2018-04-06T13:34:22.391Z,17.50
2018-04-06T13:36:49.844Z,17.90
2018-04-06T13:39:17.305Z,19.50
2018-04-06T13:41:44.783Z,21.50
2018-04-06T13:44:12.229Z,23.60
2018-04-06T13:46:39.768Z,25.50
2018-04-06T13:49:07.941Z,28.70
2018-04-06T13:51:35.404Z,28.60
2018-04-06T13:54:02.869Z,29.60
2018-04-06T13:56:30.340Z,30.00
2018-04-06T13:58:57.790Z,30.40
2018-04-06T14:01:25.266Z,30.90
2018-04-06T14:03:52.720Z,32.30
2018-04-06T14:06:20.192Z,33.90
2018-04-06T14:08:47.660Z,35.40
2018-04-06T14:11:15.175Z,36.60
2018-04-06T14:13:42.636Z,37.70
2018-04-06T14:16:10.078Z,38.40
2018-04-06T14:18:37.546Z,39.40
2018-04-06T14:21:05.041Z,40.50
2018-04-06T14:23:32.485Z,40.20
2018-04-06T14:25:59.957Z,40.10
2018-04-06T14:28:27.414Z,40.30
2018-04-06T14:30:54.909Z,40.30
2018-04-06T14:33:22.357Z,40.20
2018-04-06T14:35:50.594Z,39.90
2018-04-06T14:38:18.126Z,39.80
2018-04-06T14:40:45.607Z,39.90
2018-04-06T14:43:13.083Z,40.20
2018-04-06T14:45:40.537Z,40.20
2018-04-06T14:48:08.016Z,40.30
2018-04-06T14:50:35.469Z,40.00
2018-04-06T14:53:02.948Z,39.80
2018-04-06T14:55:30.437Z,39.70
2018-04-06T14:57:57.977Z,39.90
2018-04-06T15:00:25.450Z,40.50
2018-04-06T15:02:52.937Z,40.60
2018-04-06T15:05:20.385Z,40.40
2018-04-06T15:07:47.833Z,40.10
2018-04-06T15:10:15.308Z,39.80
2018-04-06T15:12:42.776Z,38.90
2018-04-06T15:15:10.224Z,38.30
2018-04-06T15:17:37.704Z,37.30
2018-04-06T15:20:05.175Z,36.80
2018-04-06T15:22:33.384Z,35.70
2018-04-06T15:25:00.832Z,35.60
2018-04-06T15:27:28.309Z,35.10
2018-04-06T15:29:55.800Z,34.90
2018-04-06T15:32:23.245Z,34.40
2018-04-06T15:34:50.697Z,34.10
2018-04-06T15:37:18.172Z,33.60
2018-04-06T15:39:45.615Z,33.10
2018-04-06T15:42:13.093Z,32.60
2018-04-06T15:44:40.548Z,32.50
2018-04-06T15:47:08.002Z,33.30
2018-04-06T15:49:35.476Z,33.90
2018-04-06T15:52:02.972Z,34.40
2018-04-06T15:54:30.407Z,34.60
2018-04-06T15:56:58.628Z,32.90
2018-04-06T15:59:26.105Z,32.90
2018-04-06T16:01:53.629Z,32.40
2018-04-06T16:04:21.097Z,31.90
2018-04-06T16:06:48.551Z,31.80
2018-04-06T16:09:16.029Z,31.60
2018-04-06T16:11:43.477Z,31.30
2018-04-06T16:14:10.944Z,31.40
2018-04-06T16:16:38.398Z,31.20
2018-04-06T16:19:05.857Z,31.00
2018-04-06T16:21:33.325Z,30.90
2018-04-06T16:24:00.777Z,30.70
2018-04-06T16:26:28.244Z,30.50
2018-04-06T16:28:55.719Z,29.80
2018-04-06T16:31:23.201Z,29.10
2018-04-06T16:33:51.606Z,27.90
2018-04-06T16:36:19.213Z,27.80
2018-04-06T16:38:46.683Z,27.30
2018-04-06T16:41:14.162Z,26.50
2018-04-06T16:43:42.584Z,25.90
2018-04-06T16:46:10.259Z,25.30
2018-04-06T16:48:37.769Z,24.60
2018-04-06T16:51:05.275Z,23.90
2018-04-06T16:53:32.764Z,23.40
2018-04-06T16:56:00.439Z,23.00
2018-04-06T16:58:28.647Z,22.20
2018-04-06T17:00:56.179Z,22.20
2018-04-06T17:03:23.634Z,21.90
2018-04-06T17:05:51.081Z,21.90
2018-04-06T17:08:19.321Z,21.40
2018-04-06T17:10:46.769Z,21.30
2018-04-06T17:13:14.278Z,21.10
2018-04-06T17:15:41.708Z,20.80
2018-04-06T17:18:09.169Z,20.50
2018-04-06T17:20:36.617Z,20.40
2018-04-06T17:23:04.109Z,20.20
2018-04-06T17:25:32.391Z,19.90
2018-04-06T17:27:59.851Z,19.90
2018-04-06T17:30:28.133Z,19.60
2018-04-06T17:32:56.358Z,19.60
2018-04-06T17:35:23.847Z,19.50
2018-04-06T17:37:52.073Z,19.30
2018-04-06T17:40:19.566Z,19.30
2018-04-06T17:42:47.033Z,19.10
2018-04-06T17:45:14.504Z,19.00
2018-04-06T17:47:42.752Z,18.60
2018-04-06T17:50:10.999Z,18.40
2018-04-06T17:52:38.472Z,18.40
2018-04-06T17:55:05.923Z,18.30
2018-04-06T17:57:33.412Z,18.10
2018-04-06T18:00:00.864Z,18.00
2018-04-06T18:02:28.337Z,17.80
2018-04-06T18:04:55.849Z,17.60
2018-04-06T18:07:23.308Z,17.50
2018-04-06T18:09:50.799Z,17.30
2018-04-06T18:12:18.693Z,17.20
2018-04-06T18:14:46.192Z,17.10
2018-04-06T18:17:13.760Z,16.90
2018-04-06T18:19:41.412Z,16.80
2018-04-06T18:22:08.914Z,16.60
2018-04-06T18:24:37.291Z,16.40
2018-04-06T18:27:04.880Z,16.40
2018-04-06T18:29:33.097Z,16.20
2018-04-06T18:32:00.569Z,16.20
2018-04-06T18:34:28.044Z,16.10
2018-04-06T18:36:55.525Z,16.00
2018-04-06T18:39:22.995Z,15.90
2018-04-06T18:41:51.233Z,15.70
2018-04-06T18:44:19.456Z,15.70
2018-04-06T18:46:46.938Z,15.60
2018-04-06T18:49:14.393Z,15.60
2018-04-06T18:51:41.914Z,15.60
2018-04-06T18:54:10.149Z,15.40
2018-04-06T18:56:37.624Z,15.40
2018-04-06T18:59:05.121Z,15.40
2018-04-06T19:01:32.600Z,15.30
2018-04-06T19:04:00.286Z,15.20
2018-04-06T19:06:27.894Z,15.20
2018-04-06T19:08:55.435Z,15.10
2018-04-06T19:11:22.925Z,15.10
2018-04-06T19:13:51.164Z,15.00
2018-04-06T19:16:19.427Z,14.90
2018-04-06T19:18:47.006Z,14.90
2018-04-06T19:21:14.704Z,14.90
2018-04-06T19:23:42.177Z,14.80
2018-04-06T19:26:09.688Z,14.70
2018-04-06T19:28:37.402Z,14.70
2018-04-06T19:31:04.888Z,14.70
2018-04-06T19:33:32.363Z,14.70
2018-04-06T19:35:59.808Z,14.70
2018-04-06T19:38:27.277Z,14.60
2018-04-06T19:40:54.725Z,14.60
2018-04-06T19:43:22.187Z,14.50
2018-04-06T19:45:49.870Z,14.50
2018-04-06T19:48:18.397Z,14.40
2018-04-06T19:50:45.928Z,14.40
2018-04-06T19:53:14.171Z,14.40
2018-04-06T19:55:41.643Z,14.30
2018-04-06T19:58:09.268Z,14.30
2018-04-06T20:00:36.837Z,14.30
2018-04-06T20:03:05.272Z,14.30
2018-04-06T20:05:33.156Z,14.20
2018-04-06T20:08:00.747Z,14.20
2018-04-06T20:10:28.316Z,14.10
2018-04-06T20:12:55.805Z,14.10
2018-04-06T20:15:23.350Z,14.10
2018-04-06T20:17:50.938Z,14.10
2018-04-06T20:20:18.678Z,14.10
2018-04-06T20:22:46.296Z,14.00
2018-04-06T20:25:13.863Z,13.90
2018-04-06T20:27:41.438Z,13.90
2018-04-06T20:30:08.934Z,13.90
2018-04-06T20:32:36.634Z,13.90
2018-04-06T20:35:04.176Z,13.80
2018-04-06T20:37:31.659Z,13.80
2018-04-06T20:39:59.180Z,13.80
2018-04-06T20:42:26.699Z,13.70
2018-04-06T20:44:54.137Z,13.70
2018-04-06T20:47:21.741Z,13.70
2018-04-06T20:49:49.251Z,13.60
2018-04-06T20:52:16.745Z,13.60
2018-04-06T20:54:44.227Z,13.50
2018-04-06T20:57:11.693Z,13.50
2018-04-06T20:59:39.165Z,13.50
2018-04-06T21:02:06.689Z,13.50
2018-04-06T21:04:34.156Z,13.40
2018-04-06T21:07:01.621Z,13.40
2018-04-06T21:09:29.873Z,13.40
2018-04-06T21:11:57.350Z,13.40
2018-04-06T21:14:24.833Z,13.30
2018-04-06T21:16:52.320Z,13.30
2018-04-06T21:19:19.772Z,13.30
2018-04-06T21:21:47.254Z,13.30
2018-04-06T21:24:14.706Z,13.20
2018-04-06T21:26:42.167Z,13.20
2018-04-06T21:29:09.621Z,13.20
2018-04-06T21:31:37.121Z,13.20
2018-04-06T21:34:04.578Z,13.10
2018-04-06T21:36:32.025Z,13.10
2018-04-06T21:38:59.484Z,13.10
2018-04-06T21:41:26.967Z,13.00
2018-04-06T21:43:54.465Z,13.00
2018-04-06T21:46:21.946Z,12.90
2018-04-06T21:48:50.181Z,12.90
2018-04-06T21:51:17.628Z,12.90
2018-04-06T21:53:45.093Z,12.90
2018-04-06T21:56:12.561Z,12.80
2018-04-06T21:58:40.049Z,12.80
2018-04-06T22:01:07.487Z,12.80
2018-04-06T22:03:34.949Z,12.70
2018-04-06T22:06:02.424Z,12.70
2018-04-06T22:08:29.887Z,12.70
2018-04-06T22:10:57.376Z,12.60
2018-04-06T22:13:25.625Z,12.60
2018-04-06T22:15:53.070Z,12.60
2018-04-06T22:18:20.532Z,12.50
2018-04-06T22:20:47.986Z,12.50
2018-04-06T22:23:15.463Z,12.50
2018-04-06T22:25:42.943Z,12.50
2018-04-06T22:28:11.154Z,12.40
2018-04-06T22:30:38.626Z,12.30
2018-04-06T22:33:06.097Z,12.30
2018-04-06T22:35:33.544Z,12.30
2018-04-06T22:38:00.991Z,12.20
2018-04-06T22:40:28.524Z,12.20
2018-04-06T22:42:55.996Z,12.20
2018-04-06T22:45:23.715Z,12.10
2018-04-06T22:47:51.961Z,12.10
2018-04-06T22:50:19.405Z,12.10
2018-04-06T22:52:46.884Z,12.10
2018-04-06T22:55:14.333Z,12.10
2018-04-06T22:57:41.791Z,12.00
2018-04-06T23:00:09.268Z,12.00
2018-04-06T23:02:36.727Z,11.90
2018-04-06T23:05:04.209Z,11.90
2018-04-06T23:07:32.527Z,11.90
2018-04-06T23:10:00.062Z,11.90
2018-04-06T23:12:27.568Z,11.80
2018-04-06T23:14:55.018Z,11.80
2018-04-06T23:17:22.488Z,11.80
2018-04-06T23:19:49.932Z,11.70
2018-04-06T23:22:17.497Z,11.70
2018-04-06T23:24:44.973Z,11.70
2018-04-06T23:27:12.443Z,11.70
2018-04-06T23:29:39.897Z,11.70
2018-04-06T23:32:07.374Z,11.70
2018-04-06T23:34:35.599Z,11.60
2018-04-06T23:37:03.074Z,11.60
2018-04-06T23:39:30.563Z,11.60
2018-04-06T23:41:58.025Z,11.60
2018-04-06T23:44:26.266Z,11.60
2018-04-06T23:46:53.716Z,11.60
2018-04-06T23:49:21.162Z,11.60
2018-04-06T23:51:48.612Z,11.60
2018-04-06T23:54:16.076Z,11.50
2018-04-06T23:56:43.533Z,11.50
2018-04-06T23:59:11.014Z,11.50
